Criders, Virginia
Current Conditions -  °F | °C
As of 8:35 AM on Thursday 30 Oct 2014 (Local Time) from K8W2 Reporting Station
Overcast Overcast  
Wind Chill: 36°   Ceiling: 5000
Heat Index: 36°   Visibility: 10mi
Dew Point: 36°   Wind: 0mph
Humidity: 98%   Direction: NA
Pressure: 30.08"   Gusts: NA
Location:  38.75°N, 79°W
Report Text: K8W2 301235Z AUTO 00000KT 10SM OVC050 02/02 A3008 RMK AO1 T00230020
Loading
Personal Weather Stations






























Interactive Weather Map
Tropical Storm Tracking
New forecast layout! Learn more

10-Day Weather Forecast

Advertisements
Track Severe Weather on mobile